»·PEaware :: SWA2542 KSAN-KLAS

SWA2542 :: KSAN-KLAS

FLIGHT INFORMATION

Flight Status: Arrived
Operator:
Southwest Airlines
More flights by this operator :: More flights under this callsign
Pilot: Alfredo R. (12181)
Aircraft: BOEING 737-800
(B738)
More flights by this aircraft type
Origin: KSAN San Diego Intl-Lindbergh
United States
Destination: KLAS McCarran Intl
United States
More flights between these airports :: More routes between these airports
Route: PADRZ2 CHKNN SEBBY YELAH MISEN KEPEC6
File this flight plan on PilotEdge
Remarks:
Altitude:
(Current/Filed)
27,000ft
Speed:
(Current/Filed)
425kts
Departed: 29-Apr-18 09:35 AM
Arrived: 29-Apr-18 10:33 AM
Distance/Time
Traveled:
225nm/0:57
Distance/Time
To Go:
Arrived

Flight Plot

Page will automatically refresh every two minutes.

Flight plan parsing failed; only flown route is shown


Map Options




Map Legend


Flown Route
Filed Route
Departure Airport
Arrival Airport
Navaid (VOR, NDB)
Fix

Horizontal Profiles

Position Reports

Time Latitude Longitude Heading Altitude Ground
Speed
29-Apr-18 09:02 32.733252 -117.196054 196 25ft 0kts
29-Apr-18 09:03 32.733252 -117.196054 196 25ft 0kts
29-Apr-18 09:04 32.733252 -117.196054 196 25ft 0kts
29-Apr-18 09:05 32.733252 -117.196054 196 25ft 0kts
29-Apr-18 09:06 32.733252 -117.196054 196 25ft 0kts
29-Apr-18 09:07 32.733252 -117.196054 196 25ft 0kts
29-Apr-18 09:08 32.733252 -117.196054 196 25ft 0kts
29-Apr-18 09:09 32.733252 -117.196054 196 25ft 0kts
29-Apr-18 09:10 32.733252 -117.196054 196 25ft 0kts
29-Apr-18 09:11 32.733252 -117.196054 196 25ft 0kts
29-Apr-18 09:12 32.733252 -117.196054 196 25ft 0kts
29-Apr-18 09:13 32.733252 -117.196054 196 25ft 0kts
29-Apr-18 09:14 32.733252 -117.196054 196 25ft 0kts
29-Apr-18 09:15 32.733252 -117.196054 196 25ft 0kts
29-Apr-18 09:16 32.733525 -117.195957 196 25ft 2kts
29-Apr-18 09:17 32.734047 -117.195937 119 25ft 2kts
29-Apr-18 09:18 32.734128 -117.196273 106 25ft 0kts
29-Apr-18 09:19 32.734127 -117.196273 106 25ft 0kts
29-Apr-18 09:20 32.734127 -117.196273 106 25ft 0kts
29-Apr-18 09:21 32.734127 -117.196273 106 25ft 0kts
29-Apr-18 09:22 32.733929 -117.195456 106 24ft 7kts
29-Apr-18 09:23 32.733284 -117.192788 106 25ft 10kts
29-Apr-18 09:24 32.732492 -117.189536 105 25ft 13kts
29-Apr-18 09:25 32.731519 -117.185501 106 24ft 15kts
29-Apr-18 09:26 32.730494 -117.181257 106 24ft 16kts
29-Apr-18 09:27 32.729495 -117.177152 100 24ft 8kts
29-Apr-18 09:28 32.729535 -117.176720 75 25ft 0kts
29-Apr-18 09:29 32.729535 -117.176720 75 25ft 0kts
29-Apr-18 09:30 32.729535 -117.176720 75 25ft 0kts
29-Apr-18 09:31 32.729535 -117.176720 75 25ft 0kts
29-Apr-18 09:32 32.729535 -117.176720 75 25ft 0kts
29-Apr-18 09:33 32.729627 -117.176341 73 25ft 7kts
29-Apr-18 09:34 32.731057 -117.179371 286 25ft 56kts
29-Apr-18 09:35 32.741984 -117.220755 292 820ft 187kts
29-Apr-18 09:36 32.773392 -117.275869 302 2451ft 238kts
29-Apr-18 09:37 32.813861 -117.340840 303 5148ft 256kts
29-Apr-18 09:38 32.856500 -117.406922 305 8024ft 259kts
29-Apr-18 09:39 32.900071 -117.474567 305 10438ft 272kts
29-Apr-18 09:40 32.948043 -117.549191 305 12481ft 300kts
29-Apr-18 09:41 32.998150 -117.627252 305 15200ft 310kts
29-Apr-18 09:42 33.049418 -117.707380 304 17680ft 318kts
29-Apr-18 09:43 33.112291 -117.781406 315 19988ft 330kts
29-Apr-18 09:44 33.182119 -117.851808 314 21924ft 341kts
29-Apr-18 09:45 33.255938 -117.924075 315 23733ft 352kts
29-Apr-18 09:46 33.332388 -117.998434 316 25397ft 361kts
29-Apr-18 09:47 33.410030 -118.074265 316 26908ft 370kts
29-Apr-18 09:48 33.492361 -118.155051 316 27083ft 406kts
29-Apr-18 09:49 33.579728 -118.240177 321 27075ft 415kts
29-Apr-18 09:50 33.683051 -118.297738 331 27076ft 420kts
29-Apr-18 09:51 33.784886 -118.297455 29 27091ft 467kts
29-Apr-18 09:52 33.856145 -118.176637 51 27086ft 484kts
29-Apr-18 09:53 33.929297 -118.050908 50 27080ft 483kts
29-Apr-18 09:54 34.006502 -117.919801 50 27071ft 483kts
29-Apr-18 09:55 34.083582 -117.789262 49 27038ft 483kts
29-Apr-18 09:56 34.165945 -117.665842 45 27071ft 475kts
29-Apr-18 09:57 34.249469 -117.542621 46 27069ft 475kts
29-Apr-18 09:58 34.332959 -117.418705 45 27077ft 477kts
29-Apr-18 09:59 34.416521 -117.294570 46 27017ft 480kts
29-Apr-18 10:00 34.500818 -117.169488 46 27014ft 480kts
29-Apr-18 10:01 34.584821 -117.044909 46 27019ft 480kts
29-Apr-18 10:02 34.669289 -116.919776 46 26964ft 480kts
29-Apr-18 10:03 34.752935 -116.795944 46 26878ft 471kts
29-Apr-18 10:04 34.835756 -116.673404 46 25704ft 467kts
29-Apr-18 10:05 34.928332 -116.571604 33 24448ft 436kts
29-Apr-18 10:06 35.022370 -116.480566 33 23289ft 431kts
29-Apr-18 10:07 35.113973 -116.390010 40 22125ft 425kts
29-Apr-18 10:08 35.195560 -116.288271 42 20937ft 417kts
29-Apr-18 10:09 35.275574 -116.187708 43 19712ft 408kts
29-Apr-18 10:10 35.353781 -116.089123 43 18500ft 400kts
29-Apr-18 10:11 35.430111 -115.992599 43 17297ft 392kts
29-Apr-18 10:12 35.504984 -115.897637 43 16096ft 383kts
29-Apr-18 10:13 35.577909 -115.804880 43 14895ft 370kts
29-Apr-18 10:14 35.645440 -115.718689 43 13658ft 338kts
29-Apr-18 10:15 35.709056 -115.637388 43 13033ft 325kts
29-Apr-18 10:16 35.779504 -115.574457 2 13042ft 311kts
29-Apr-18 10:17 35.865094 -115.568572 358 13030ft 308kts
29-Apr-18 10:18 35.949723 -115.559083 19 12935ft 316kts
29-Apr-18 10:19 35.999606 -115.476065 66 12077ft 307kts
29-Apr-18 10:20 36.029374 -115.381546 71 11137ft 284kts
29-Apr-18 10:21 36.026726 -115.286030 95 10270ft 278kts
29-Apr-18 10:22 36.019212 -115.192094 95 9366ft 276kts
29-Apr-18 10:24 36.012851 -115.102811 96 8432ft 250kts
29-Apr-18 10:25 36.007445 -115.018747 96 7468ft 244kts
29-Apr-18 10:26 36.002405 -114.936374 96 6478ft 239kts
29-Apr-18 10:26 36.011141 -114.872936 36 5668ft 230kts
29-Apr-18 10:27 36.055729 -114.894018 299 4859ft 187kts
29-Apr-18 10:28 36.075052 -114.952428 271 4407ft 180kts
29-Apr-18 10:29 36.076794 -115.010267 268 3829ft 169kts
29-Apr-18 10:30 36.073609 -115.064045 261 2954ft 147kts
29-Apr-18 10:31 36.073729 -115.115400 266 2255ft 149kts
29-Apr-18 10:32 36.073742 -115.147617 281 2110ft 35kts
29-Apr-18 10:34 36.075534 -115.151484 335 2122ft 15kts
29-Apr-18 10:34 36.076984 -115.152342 334 2122ft 0kts

Navigation Log

Ident Type
Flight plan parsing failed, navigation log unavailable